createdAt,value
2022-08-05T00:01:27.790Z,100246.47
2022-08-05T00:04:31.452Z,100266.81
2022-08-05T00:08:00.158Z,100267.69
2022-08-05T00:11:00.650Z,100250.25
2022-08-05T00:14:12.772Z,100263.38
2022-08-05T00:17:28.629Z,100255.91
2022-08-05T00:20:30.955Z,100243.56
2022-08-05T00:23:46.431Z,100243.97
2022-08-05T00:26:55.680Z,100259.09
2022-08-05T00:29:58.253Z,100247.25
2022-08-05T00:33:02.946Z,100249.66
2022-08-05T00:36:16.370Z,100242.81
2022-08-05T00:39:28.331Z,100245.62
2022-08-05T00:42:44.252Z,100261.53
2022-08-05T00:45:51.675Z,100251.88
2022-08-05T00:48:55.690Z,100241.59
2022-08-05T00:52:00.407Z,100251.50
2022-08-05T00:55:03.673Z,100255.97
2022-08-05T00:58:06.052Z,100231.31
2022-08-05T01:01:15.605Z,100239.00
2022-08-05T01:04:29.922Z,100231.47
2022-08-05T01:07:32.754Z,100245.41
2022-08-05T01:10:52.495Z,100244.69
2022-08-05T01:14:08.861Z,100251.53
2022-08-05T01:17:16.703Z,100236.50
2022-08-05T01:20:50.017Z,100248.00
2022-08-05T01:24:23.455Z,100244.44
2022-08-05T01:27:55.589Z,100247.69
2022-08-05T01:31:25.784Z,100247.31
2022-08-05T01:34:39.355Z,100245.34
2022-08-05T01:37:48.076Z,100248.16
2022-08-05T01:40:53.115Z,100249.44
2022-08-05T01:43:57.085Z,100253.09
2022-08-05T01:47:02.014Z,100253.94
2022-08-05T01:50:16.065Z,100237.69
2022-08-05T01:53:54.982Z,100250.41
2022-08-05T01:58:11.161Z,100237.75
2022-08-05T02:00:11.916Z,100252.06
2022-08-05T02:03:31.773Z,100236.22
2022-08-05T02:06:38.389Z,100262.16
2022-08-05T02:09:41.445Z,100243.44
2022-08-05T02:13:03.007Z,100248.59
2022-08-05T02:16:22.248Z,100257.87
2022-08-05T02:19:35.033Z,100253.09
2022-08-05T02:22:43.681Z,100253.53
2022-08-05T02:25:49.012Z,100232.09
2022-08-05T02:28:56.133Z,100256.47
2022-08-05T02:32:04.685Z,100251.25
2022-08-05T02:35:19.048Z,100244.88
2022-08-05T02:38:35.412Z,100237.44
2022-08-05T02:41:58.076Z,100245.75
2022-08-05T02:45:04.561Z,100244.22
2022-08-05T02:48:12.796Z,100236.69
2022-08-05T02:51:16.661Z,100235.22
2022-08-05T02:54:34.543Z,100244.78
2022-08-05T02:58:09.707Z,100242.84
2022-08-05T03:01:03.904Z,100244.09
2022-08-05T03:04:13.938Z,100227.41
2022-08-05T03:07:40.445Z,100251.03
2022-08-05T03:11:47.620Z,100244.59
2022-08-05T03:14:08.313Z,100237.81
2022-08-05T03:17:10.666Z,100219.94
2022-08-05T03:20:13.858Z,100212.34
2022-08-05T03:23:16.686Z,100229.91
2022-08-05T03:26:32.472Z,100208.41
2022-08-05T03:29:45.666Z,100225.12
2022-08-05T03:33:02.869Z,100225.16
2022-08-05T03:36:06.640Z,100227.56
2022-08-05T03:39:20.142Z,100221.25
2022-08-05T03:42:32.406Z,100223.63
2022-08-05T03:45:57.330Z,100230.84
2022-08-05T03:49:02.001Z,100231.69
2022-08-05T03:52:49.028Z,100230.94
2022-08-05T03:56:04.810Z,100219.94
2022-08-05T03:59:07.543Z,100218.38
2022-08-05T04:02:17.378Z,100211.97
2022-08-05T04:05:38.587Z,100217.59
2022-08-05T04:08:43.828Z,100219.56
2022-08-05T04:11:56.884Z,100223.19
2022-08-05T04:14:59.916Z,100235.50
2022-08-05T04:18:09.833Z,100239.88
2022-08-05T04:21:14.314Z,100243.09
2022-08-05T04:24:52.682Z,100239.84
2022-08-05T04:27:57.465Z,100243.47
2022-08-05T04:31:01.837Z,100214.34
2022-08-05T04:34:31.227Z,100220.69
2022-08-05T04:38:01.125Z,100226.25
2022-08-05T04:41:05.491Z,100213.37
2022-08-05T04:44:16.284Z,100241.31
2022-08-05T04:47:32.256Z,100246.09
2022-08-05T04:51:03.074Z,100245.25
2022-08-05T04:54:10.484Z,100237.16
2022-08-05T04:57:14.792Z,100227.25
2022-08-05T05:00:23.612Z,100240.31
2022-08-05T05:03:26.403Z,100243.44
2022-08-05T05:06:49.355Z,100241.03
2022-08-05T05:10:04.298Z,100236.97
2022-08-05T05:13:06.766Z,100232.91
2022-08-05T05:16:12.904Z,100233.72
2022-08-05T05:19:26.524Z,100232.50
2022-08-05T05:22:30.213Z,100228.91
2022-08-05T05:25:41.236Z,100217.84
2022-08-05T05:28:44.809Z,100229.75
2022-08-05T05:31:50.472Z,100238.88
2022-08-05T05:34:53.830Z,100226.03
2022-08-05T05:38:01.564Z,100234.34
2022-08-05T05:41:05.011Z,100212.69
2022-08-05T05:44:35.570Z,100228.06
2022-08-05T05:48:05.607Z,100210.81
2022-08-05T05:50:56.740Z,100224.22
2022-08-05T05:54:00.043Z,100236.09
2022-08-05T05:57:02.368Z,100235.19
2022-08-05T06:00:08.355Z,100229.38
2022-08-05T06:03:40.672Z,100234.84
2022-08-05T06:06:36.920Z,100227.50
2022-08-05T06:10:00.012Z,100223.25
2022-08-05T06:13:06.106Z,100190.44
2022-08-05T06:16:30.644Z,100208.97
2022-08-05T06:19:34.738Z,100227.22
2022-08-05T06:22:37.877Z,100229.78
2022-08-05T06:26:12.339Z,100218.38
2022-08-05T06:29:06.439Z,100225.41
2022-08-05T06:32:29.261Z,100205.84
2022-08-05T06:36:03.472Z,100229.19
2022-08-05T06:38:54.881Z,100238.34
2022-08-05T06:41:59.126Z,100227.37
2022-08-05T06:45:05.226Z,100235.31
2022-08-05T06:48:47.377Z,100235.72
2022-08-05T06:51:31.985Z,100219.19
2022-08-05T06:54:34.333Z,100239.00
2022-08-05T06:58:02.541Z,100217.38
2022-08-05T07:01:02.363Z,100230.81
2022-08-05T07:04:04.932Z,100227.97
2022-08-05T07:07:08.057Z,100216.97
2022-08-05T07:10:10.950Z,100231.47
2022-08-05T07:13:58.548Z,100225.62
2022-08-05T07:17:58.677Z,100234.78
2022-08-05T07:20:33.425Z,100231.59
2022-08-05T07:23:37.501Z,100217.34
2022-08-05T07:26:52.000Z,100234.13
2022-08-05T07:30:22.159Z,100213.13
2022-08-05T07:33:17.383Z,100226.03
2022-08-05T07:36:21.698Z,100223.16
2022-08-05T07:39:24.704Z,100224.16
2022-08-05T07:42:47.087Z,100223.84
2022-08-05T07:45:57.805Z,100219.72
2022-08-05T07:49:05.973Z,100221.94
2022-08-05T07:52:12.373Z,100213.72
2022-08-05T07:55:43.969Z,100221.41
2022-08-05T07:58:58.515Z,100215.06
2022-08-05T08:02:03.861Z,100223.00
2022-08-05T08:05:08.379Z,100212.88
2022-08-05T08:08:14.013Z,100222.78
2022-08-05T08:11:18.125Z,100213.63
2022-08-05T08:14:30.068Z,100210.37
2022-08-05T08:17:32.912Z,100208.78
2022-08-05T08:21:00.514Z,100222.88
2022-08-05T08:24:04.958Z,100222.75
2022-08-05T08:27:10.113Z,100211.59
2022-08-05T08:30:32.425Z,100203.94
2022-08-05T08:33:39.920Z,100222.69
2022-08-05T08:36:49.133Z,100215.62
2022-08-05T08:39:57.263Z,100208.75
2022-08-05T08:45:19.456Z,100215.78
2022-08-05T08:46:29.279Z,100211.59
2022-08-05T08:50:14.190Z,100206.37
2022-08-05T08:53:03.506Z,100214.56
2022-08-05T08:56:14.985Z,100197.16
2022-08-05T08:59:20.814Z,100213.84
2022-08-05T09:02:26.911Z,100211.50
2022-08-05T09:05:38.368Z,100195.03
2022-08-05T09:08:41.764Z,100206.94
2022-08-05T09:11:51.525Z,100204.38
2022-08-05T09:15:06.038Z,100197.53
2022-08-05T09:18:09.861Z,100193.13
2022-08-05T09:21:21.188Z,100186.00
2022-08-05T09:24:38.571Z,100197.81
2022-08-05T09:28:04.420Z,100188.31
2022-08-05T09:32:38.976Z,100191.97
2022-08-05T09:34:55.201Z,100123.31
2022-08-05T09:38:16.722Z,100187.44
2022-08-05T09:41:21.140Z,100179.41
2022-08-05T09:44:41.661Z,100158.31
2022-08-05T09:47:56.024Z,100169.91
2022-08-05T09:51:15.031Z,100171.59
2022-08-05T09:54:31.939Z,100180.03
2022-08-05T09:57:40.047Z,100164.66
2022-08-05T10:01:00.143Z,100147.81
2022-08-05T10:04:11.104Z,100158.28
2022-08-05T10:07:31.868Z,100157.72
2022-08-05T10:10:53.921Z,100151.44
2022-08-05T10:13:56.895Z,100159.41
2022-08-05T10:17:37.723Z,100145.13
2022-08-05T10:20:42.927Z,100128.09
2022-08-05T10:23:59.052Z,100140.91
2022-08-05T10:27:02.604Z,100131.69
2022-08-05T10:32:02.965Z,100132.25
2022-08-05T10:33:34.213Z,100139.50
2022-08-05T10:36:41.088Z,100115.41
2022-08-05T10:39:59.018Z,100132.44
2022-08-05T10:43:11.138Z,100116.34
2022-08-05T10:46:17.245Z,100122.19
2022-08-05T10:49:27.080Z,100115.25
2022-08-05T10:52:46.980Z,100121.06
2022-08-05T10:56:21.560Z,100112.78
2022-08-05T11:00:02.765Z,100117.97
2022-08-05T11:02:59.244Z,100101.03
2022-08-05T11:06:21.540Z,100114.34
2022-08-05T11:10:03.819Z,100085.78
2022-08-05T11:13:40.085Z,100112.78
2022-08-05T11:17:59.923Z,100097.06
2022-08-05T11:20:57.206Z,100102.56
2022-08-05T11:24:29.883Z,100086.91
2022-08-05T11:27:37.046Z,100089.47
2022-08-05T11:31:06.109Z,100077.25
2022-08-05T11:34:15.044Z,100092.75
2022-08-05T11:38:30.912Z,100080.53
2022-08-05T11:41:36.839Z,100091.31
2022-08-05T11:44:40.885Z,100076.22
2022-08-05T11:47:55.918Z,100084.16
2022-08-05T11:50:59.538Z,100083.81
2022-08-05T11:54:02.774Z,100078.72
2022-08-05T11:57:08.162Z,100089.16
2022-08-05T12:00:28.843Z,100080.72
2022-08-05T12:03:55.538Z,100091.16
2022-08-05T12:07:02.049Z,100081.34
2022-08-05T12:10:09.417Z,100093.84
2022-08-05T12:13:27.924Z,100069.06
2022-08-05T12:16:47.436Z,100082.41
2022-08-05T12:20:26.324Z,100084.28
2022-08-05T12:23:18.289Z,100075.66
2022-08-05T12:26:24.167Z,100061.16
2022-08-05T12:29:38.834Z,100060.69
2022-08-05T12:32:53.785Z,100069.06
2022-08-05T12:36:00.955Z,100071.13
2022-08-05T12:39:07.136Z,100066.12
2022-08-05T12:42:14.510Z,100049.22
2022-08-05T12:45:18.589Z,100062.94
2022-08-05T12:48:32.380Z,100061.63
2022-08-05T12:52:14.033Z,100062.03
2022-08-05T12:55:22.661Z,100060.38
2022-08-05T12:58:48.551Z,100032.41
2022-08-05T13:02:07.137Z,100051.88
2022-08-05T13:05:12.597Z,100049.16
2022-08-05T13:08:18.547Z,100040.37
2022-08-05T13:12:02.654Z,99972.75
2022-08-05T13:15:06.241Z,100027.44
2022-08-05T13:18:12.728Z,100015.50
2022-08-05T13:21:22.250Z,100000.00
2022-08-05T13:24:57.341Z,100000.09
2022-08-05T13:27:56.109Z,100015.75
2022-08-05T13:31:11.112Z,100008.31
2022-08-05T13:34:20.918Z,99996.22
2022-08-05T13:37:34.429Z,99996.28
2022-08-05T13:40:51.467Z,99962.69
2022-08-05T13:43:55.482Z,99967.88
2022-08-05T13:47:02.392Z,99983.03
2022-08-05T13:50:16.214Z,99977.06
2022-08-05T13:53:19.551Z,99986.19
2022-08-05T13:56:21.741Z,99981.78
2022-08-05T13:59:27.161Z,99974.19
2022-08-05T14:02:31.367Z,99961.38
2022-08-05T14:06:24.372Z,99971.56
2022-08-05T14:08:59.530Z,99967.88
2022-08-05T14:12:17.420Z,99957.22
2022-08-05T14:16:06.927Z,99961.13
2022-08-05T14:18:42.933Z,99953.78
2022-08-05T14:22:09.477Z,99959.81
2022-08-05T14:25:21.485Z,99929.06
2022-08-05T14:28:26.923Z,99949.66
2022-08-05T14:31:54.337Z,99943.94
2022-08-05T14:34:53.078Z,99912.34
2022-08-05T14:38:00.998Z,99938.44
2022-08-05T14:41:06.724Z,99936.03
2022-08-05T14:44:20.687Z,99923.72
2022-08-05T14:48:03.271Z,99936.78
2022-08-05T14:50:47.373Z,99923.44
2022-08-05T14:54:26.115Z,99929.47
2022-08-05T14:57:14.135Z,99914.31
2022-08-05T15:00:16.506Z,99904.84
2022-08-05T15:03:22.969Z,99918.91
2022-08-05T15:06:27.912Z,99913.31
2022-08-05T15:09:52.488Z,99890.59
2022-08-05T15:13:04.202Z,99897.62
2022-08-05T15:16:07.494Z,99887.41
2022-08-05T15:19:23.877Z,99907.69
2022-08-05T15:22:29.223Z,99914.41
2022-08-05T15:25:41.211Z,99894.56
2022-08-05T15:28:55.344Z,99885.63
2022-08-05T15:32:03.347Z,99900.47
2022-08-05T15:35:10.845Z,99895.47
2022-08-05T15:38:35.543Z,99898.25
2022-08-05T15:41:57.413Z,99893.03
2022-08-05T15:45:06.178Z,99870.50
2022-08-05T15:48:09.912Z,99885.38
2022-08-05T15:51:16.908Z,99866.41
2022-08-05T15:54:34.675Z,99873.97
2022-08-05T15:57:37.319Z,99882.22
2022-08-05T16:00:57.084Z,99859.47
2022-08-05T16:04:04.671Z,99879.31
2022-08-05T16:07:07.271Z,99877.41
2022-08-05T16:10:13.435Z,99871.13
2022-08-05T16:13:23.374Z,99868.22
2022-08-05T16:16:26.595Z,99851.38
2022-08-05T16:20:05.723Z,99880.09
2022-08-05T16:22:51.964Z,99876.44
2022-08-05T16:26:08.975Z,99878.25
2022-08-05T16:29:14.111Z,99882.06
2022-08-05T16:32:28.701Z,99881.22
2022-08-05T16:35:34.583Z,99871.53
2022-08-05T16:38:44.815Z,99874.56
2022-08-05T16:42:13.616Z,99856.72
2022-08-05T16:46:07.662Z,99862.09
2022-08-05T16:48:40.826Z,99869.13
2022-08-05T16:51:50.379Z,99876.53
2022-08-05T16:54:53.952Z,99852.69
2022-08-05T16:58:00.004Z,99855.56
2022-08-05T17:01:04.088Z,99866.28
2022-08-05T17:04:11.764Z,99869.34
2022-08-05T17:07:43.794Z,99866.59
2022-08-05T17:10:40.302Z,99857.69
2022-08-05T17:13:42.899Z,99859.69
2022-08-05T17:16:46.241Z,99861.38
2022-08-05T17:19:56.674Z,99848.91
2022-08-05T17:22:59.062Z,99871.53
2022-08-05T17:26:02.380Z,99871.31
2022-08-05T17:29:09.760Z,99876.66
2022-08-05T17:32:17.219Z,99859.78
2022-08-05T17:35:20.845Z,99879.09
2022-08-05T17:38:23.774Z,99875.69
2022-08-05T17:42:19.576Z,99880.78
2022-08-05T17:44:51.428Z,99870.19
2022-08-05T17:47:57.821Z,99869.22
2022-08-05T17:51:00.345Z,99877.88
2022-08-05T17:54:04.051Z,99863.31
2022-08-05T17:57:06.715Z,99874.91
2022-08-05T18:00:14.928Z,99877.84
2022-08-05T18:03:48.350Z,99864.28
2022-08-05T18:06:40.385Z,99878.03
2022-08-05T18:09:59.996Z,99875.25
2022-08-05T18:13:07.575Z,99877.06
2022-08-05T18:16:15.021Z,99869.00
2022-08-05T18:19:25.933Z,99877.75
2022-08-05T18:22:46.220Z,99854.47
2022-08-05T18:25:57.773Z,99872.16
2022-08-05T18:29:02.185Z,99868.75
2022-08-05T18:32:05.337Z,99856.53
2022-08-05T18:35:07.837Z,99880.84
2022-08-05T18:38:13.868Z,99884.38
2022-08-05T18:41:56.590Z,99872.44
2022-08-05T18:44:49.355Z,99881.31
2022-08-05T18:48:31.535Z,99890.03
2022-08-05T18:52:06.205Z,99894.91
2022-08-05T18:55:10.381Z,99881.09
2022-08-05T18:58:16.355Z,99894.03
2022-08-05T19:01:19.272Z,99891.22
2022-08-05T19:04:35.801Z,99902.31
2022-08-05T19:08:02.851Z,99898.84
2022-08-05T19:11:07.257Z,99898.19
2022-08-05T19:14:59.158Z,99887.66
2022-08-05T19:18:08.449Z,99904.53
2022-08-05T19:20:59.634Z,99909.44
2022-08-05T19:24:12.448Z,99891.66
2022-08-05T19:27:15.700Z,99900.47
2022-08-05T19:30:20.579Z,99901.25
2022-08-05T19:33:35.937Z,99878.69
2022-08-05T19:36:38.844Z,99898.56
2022-08-05T19:39:51.037Z,99913.03
2022-08-05T19:43:05.580Z,99906.38
2022-08-05T19:46:16.959Z,99881.16
2022-08-05T19:49:31.497Z,99903.22
2022-08-05T19:52:34.055Z,99903.22
2022-08-05T19:56:14.155Z,99907.00
2022-08-05T19:59:51.024Z,99903.19
2022-08-05T20:02:23.678Z,99892.09
2022-08-05T20:05:43.289Z,99918.59
2022-08-05T20:08:52.369Z,99906.91
2022-08-05T20:11:55.556Z,99896.75
2022-08-05T20:14:58.004Z,99918.50
2022-08-05T20:18:02.082Z,99920.69
2022-08-05T20:21:08.708Z,99897.50
2022-08-05T20:24:11.782Z,99920.34
2022-08-05T20:27:14.323Z,99922.50
2022-08-05T20:30:19.784Z,99918.19
2022-08-05T20:33:28.099Z,99914.50
2022-08-05T20:36:35.167Z,99941.66
2022-08-05T20:39:42.388Z,99917.16
2022-08-05T20:43:00.385Z,99934.19
2022-08-05T20:46:06.894Z,99928.31
2022-08-05T20:49:09.485Z,99938.72
2022-08-05T20:52:14.813Z,99912.03
2022-08-05T20:56:02.743Z,99942.28
2022-08-05T20:58:39.920Z,99935.19
2022-08-05T21:01:42.947Z,99921.25
2022-08-05T21:04:46.151Z,99931.13
2022-08-05T21:07:51.675Z,99944.81
2022-08-05T21:10:54.716Z,99925.84
2022-08-05T21:14:01.092Z,99923.97
2022-08-05T21:17:05.507Z,99954.81
2022-08-05T21:20:10.278Z,99927.03
2022-08-05T21:23:14.655Z,99951.47
2022-08-05T21:26:18.833Z,99932.34
2022-08-05T21:29:23.563Z,99957.72
2022-08-05T21:32:29.579Z,99953.38
2022-08-05T21:35:55.697Z,99951.47
2022-08-05T21:38:54.879Z,99946.31
2022-08-05T21:42:01.910Z,99936.38
2022-08-05T21:45:05.364Z,99944.28
2022-08-05T21:48:13.638Z,99953.66
2022-08-05T21:52:16.327Z,99952.22
2022-08-05T21:54:40.372Z,99954.84
2022-08-05T21:57:47.348Z,99959.03
2022-08-05T22:00:51.490Z,99946.63
2022-08-05T22:03:54.517Z,99964.94
2022-08-05T22:06:57.263Z,99945.28
2022-08-05T22:10:00.115Z,99962.03
2022-08-05T22:13:09.355Z,99958.19
2022-08-05T22:16:41.253Z,99964.75
2022-08-05T22:20:01.750Z,99959.28
2022-08-05T22:24:01.381Z,99964.94
2022-08-05T22:27:11.080Z,99961.78
2022-08-05T22:30:19.857Z,99941.31
2022-08-05T22:33:57.424Z,99951.84
2022-08-05T22:36:44.948Z,99942.38
2022-08-05T22:39:51.962Z,99951.75
2022-08-05T22:42:58.438Z,99969.72
2022-08-05T22:46:02.559Z,99944.75
2022-08-05T22:49:23.441Z,99961.44
2022-08-05T22:52:34.375Z,99950.59
2022-08-05T22:55:56.964Z,99960.09
2022-08-05T22:59:02.769Z,99956.56
2022-08-05T23:02:06.813Z,99961.56
2022-08-05T23:05:09.831Z,99959.31
2022-08-05T23:08:12.440Z,99965.84
2022-08-05T23:11:16.536Z,99960.38
2022-08-05T23:14:22.540Z,99948.16
2022-08-05T23:17:37.933Z,99931.91
2022-08-05T23:20:56.966Z,99951.09
2022-08-05T23:24:00.643Z,99960.03
2022-08-05T23:27:06.296Z,99955.37
2022-08-05T23:30:10.558Z,99937.94
2022-08-05T23:33:16.270Z,99949.94
2022-08-05T23:36:28.520Z,99948.00
2022-08-05T23:39:53.920Z,99939.75
2022-08-05T23:42:57.033Z,99923.91
2022-08-05T23:45:59.605Z,99928.88
2022-08-05T23:49:15.716Z,99922.53
2022-08-05T23:52:35.949Z,99944.91
2022-08-05T23:55:40.085Z,99932.41
2022-08-05T23:58:44.113Z,99950.28
